Archival Weather

Heathrow

Heathrow, United Kingdom (EGLL)

Report from: Thursday, June 23, 2022 2:20 PM BST
Current time: Tuesday, August 16, 2022 8:20 AM BST

Current weather
Weather history
Weather forecast

Temperature24.0°C (75.2°F)
Dew point11.0°C (51.8°F)
Winds 5 kts (2.6 m/s, 5.8 mph) Vrb
Winds variableWinds variable from Southeast (140°) to North (359.999999°)
Visibility6.2 mi. (10 km)
Clouds Sky clear
Altimeter29.80 in.Hg (1009 mB)
Relative humidity44 %
Density altitude1,373 ft. (419 m)
Remarks Fully automated report
Corrected report
No clouds detected
No significant changes expected in the next two hours
Flight conditions Visual Meteorological Conditions
Raw dataCOR EGLL 231320Z AUTO 09005KT 360V140 9999 NCD 24/11 Q1009 NOSIG
An error has occurred. This application may no longer respond until reloaded. Reload 🗙